Hauptseite
METAR-TAF:

METAR-TAF

Flughäfen :

Flughafen Weeze

Weeze, Deutschland

Breite: 51-36-09N, Länge: 006-08-32E, Höhe: 32 m

Beobachtung

Neuester Wetterbericht von vor 31 Minuten, um 18:50 UTC
Wind 2 kt aus Süd
Temperatur 27°C
Luftfeuchtigkeit 30%
Luftdruck 1015 hPa
Sichtweite 10 km oder mehr
keine Wolken unter 1500 m und keine Kumulonimbus oder Gewitterwolken

METAR: EDLV 051850Z 19002KT CAVOK 27/08 Q1015

Zeit: 21:21 (19:21 UTC)

Prognose

Neuester Wetterbericht von vor 2 Stunden und 21 Minuten, um 17:00 UTC
Gültige Prognose vom 05 um 18 UTC bis 06 um 18 UTC
Wind 4 kt aus Südost
Sichtweite 10 km oder mehr
keine Wolken unter 1500 m und keine Kumulonimbus oder Gewitterwolken
Zeitweise
vom 06 um 09 UTC bis 06 um 14 UTC
Wind 6 kt aus Süd/Südwest

TAF: EDLV 051700Z 0518/0618 14004KT CAVOK TEMPO 0609/0614 20006KT

Wetterbeobachtungen und Prognosen von mehr als 4000 Flughäfen (METAR und TAF Bericht).

Die verfügbaren Stationen werden durch gelbe und rote Markierungen auf der Karte dargestellt.

Führen Sie die Maus auf sie, um den Namen der Station zu sehen.

Darauf klicken, um die Beobachtung von Wetterbeobachtungen und Prognosen zu sehen.

Um die Karte zu ändern : klicken Sie auf den grünen Tasten mit einem schwarzen Kreuz Zum Vergrößern, auf den grünen Button mit einem Gedankenstrich zu verkleinern, oder auf die grünen Pfeile für benachbarte Karten.


METAR-TAF: